createdAt,value
2023-05-08T00:00:38.738Z,9.17
2023-05-08T00:01:38.724Z,9.14
2023-05-08T00:02:38.870Z,9.13
2023-05-08T00:03:38.926Z,9.11
2023-05-08T00:04:38.698Z,9.10
2023-05-08T00:05:38.713Z,9.10
2023-05-08T00:06:38.668Z,9.10
2023-05-08T00:07:38.616Z,9.08
2023-05-08T00:08:38.633Z,9.05
2023-05-08T00:09:38.586Z,9.04
2023-05-08T00:10:38.589Z,9.02
2023-05-08T00:11:38.564Z,9.02
2023-05-08T00:12:38.688Z,9.01
2023-05-08T00:13:38.611Z,9.02
2023-05-08T00:14:38.639Z,9.01
2023-05-08T00:15:38.576Z,9.02
2023-05-08T00:16:38.631Z,8.99
2023-05-08T00:17:38.600Z,8.96
2023-05-08T00:18:38.559Z,8.96
2023-05-08T00:19:38.490Z,8.95
2023-05-08T00:20:38.516Z,8.96
2023-05-08T00:21:38.470Z,8.96
2023-05-08T00:22:38.501Z,8.94
2023-05-08T00:23:38.480Z,8.94
2023-05-08T00:24:38.479Z,8.94
2023-05-08T00:25:38.412Z,8.94
2023-05-08T00:26:38.417Z,8.94
2023-05-08T00:27:38.430Z,8.98
2023-05-08T00:28:38.444Z,8.94
2023-05-08T00:29:38.383Z,8.94
2023-05-08T00:30:38.449Z,8.94
2023-05-08T00:31:38.420Z,8.92
2023-05-08T00:32:38.678Z,8.95
2023-05-08T00:33:38.362Z,8.96
2023-05-08T00:34:38.358Z,8.96
2023-05-08T00:35:38.317Z,8.94
2023-05-08T00:36:38.325Z,8.92
2023-05-08T00:37:38.350Z,8.91
2023-05-08T00:38:38.298Z,8.89
2023-05-08T00:39:38.288Z,8.91
2023-05-08T00:40:38.302Z,8.89
2023-05-08T00:41:38.281Z,8.87
2023-05-08T00:42:38.279Z,8.89
2023-05-08T00:43:38.267Z,8.86
2023-05-08T00:44:38.274Z,8.84
2023-05-08T00:45:38.203Z,8.84
2023-05-08T00:46:38.255Z,8.84
2023-05-08T00:47:38.248Z,8.86
2023-05-08T00:48:38.196Z,8.86
2023-05-08T00:49:38.161Z,8.84
2023-05-08T00:50:38.161Z,8.84
2023-05-08T00:51:38.174Z,8.84
2023-05-08T00:52:38.874Z,8.84
2023-05-08T00:53:38.161Z,8.87
2023-05-08T00:54:38.182Z,8.91
2023-05-08T00:55:38.100Z,8.87
2023-05-08T00:56:38.086Z,8.91
2023-05-08T00:57:38.142Z,8.89
2023-05-08T00:58:38.089Z,8.89
2023-05-08T00:59:38.090Z,8.91
2023-05-08T01:00:38.101Z,8.92
2023-05-08T01:01:38.046Z,8.91
2023-05-08T01:02:38.128Z,8.89
2023-05-08T01:03:49.394Z,8.87
2023-05-08T01:04:37.998Z,8.89
2023-05-08T01:05:49.014Z,8.91
2023-05-08T01:06:38.036Z,8.92
2023-05-08T01:07:37.966Z,8.94
2023-05-08T01:08:38.081Z,8.94
2023-05-08T01:09:37.992Z,8.95
2023-05-08T01:10:37.999Z,8.96
2023-05-08T01:11:37.923Z,8.95
2023-05-08T01:12:37.970Z,8.99
2023-05-08T01:13:43.380Z,8.96
2023-05-08T01:14:38.010Z,8.98
2023-05-08T01:15:37.933Z,8.96
2023-05-08T01:16:37.945Z,8.98
2023-05-08T01:17:37.956Z,8.99
2023-05-08T01:18:37.884Z,9.01
2023-05-08T01:19:37.881Z,9.01
2023-05-08T01:20:37.871Z,8.99
2023-05-08T01:21:37.833Z,8.99
2023-05-08T01:22:37.816Z,8.98
2023-05-08T01:23:37.805Z,8.96
2023-05-08T01:24:37.822Z,8.94
2023-05-08T01:25:37.811Z,8.94
2023-05-08T01:26:37.780Z,8.91
2023-05-08T01:27:37.761Z,8.89
2023-05-08T01:28:37.760Z,8.89
2023-05-08T01:29:37.730Z,8.86
2023-05-08T01:30:37.757Z,8.87
2023-05-08T01:31:37.732Z,8.86
2023-05-08T01:32:37.787Z,8.84
2023-05-08T01:33:37.744Z,8.81
2023-05-08T01:34:38.114Z,8.81
2023-05-08T01:35:37.704Z,8.80
2023-05-08T01:36:37.673Z,8.79
2023-05-08T01:37:37.748Z,8.77
2023-05-08T01:38:37.674Z,8.76
2023-05-08T01:39:37.620Z,8.73
2023-05-08T01:40:37.629Z,8.74
2023-05-08T01:41:37.609Z,8.68
2023-05-08T01:42:37.619Z,8.68
2023-05-08T01:43:37.616Z,8.66
2023-05-08T01:44:37.621Z,8.65
2023-05-08T01:45:37.607Z,8.61
2023-05-08T01:46:37.605Z,8.59
2023-05-08T01:47:37.664Z,8.58
2023-05-08T01:48:37.574Z,8.58
2023-05-08T01:49:37.534Z,8.56
2023-05-08T01:50:37.522Z,8.55
2023-05-08T01:51:37.507Z,8.53
2023-05-08T01:52:37.481Z,8.55
2023-05-08T01:53:37.526Z,8.52
2023-05-08T01:54:37.516Z,8.50
2023-05-08T01:55:37.467Z,8.52
2023-05-08T01:56:37.483Z,8.50
2023-05-08T01:57:37.418Z,8.50
2023-05-08T01:58:37.439Z,8.47
2023-05-08T01:59:37.422Z,8.47
2023-05-08T02:00:49.661Z,8.45
2023-05-08T02:01:37.458Z,8.44
2023-05-08T02:02:37.953Z,8.43
2023-05-08T02:03:37.579Z,8.41
2023-05-08T02:04:37.481Z,8.40
2023-05-08T02:05:37.381Z,8.37
2023-05-08T02:06:37.341Z,8.36
2023-05-08T02:07:37.304Z,8.33
2023-05-08T02:08:37.311Z,8.29
2023-05-08T02:09:37.304Z,8.29
2023-05-08T02:10:37.277Z,8.30
2023-05-08T02:11:37.257Z,8.28
2023-05-08T02:12:37.301Z,8.26
2023-05-08T02:13:37.240Z,8.26
2023-05-08T02:14:37.246Z,8.25
2023-05-08T02:15:37.223Z,8.25
2023-05-08T02:16:37.256Z,8.25
2023-05-08T02:17:37.213Z,8.23
2023-05-08T02:18:37.204Z,8.20
2023-05-08T02:19:37.173Z,8.20
2023-05-08T02:20:37.187Z,8.25
2023-05-08T02:21:37.160Z,8.25
2023-05-08T02:22:37.150Z,8.26
2023-05-08T02:23:37.121Z,8.28
2023-05-08T02:24:37.153Z,8.28
2023-05-08T02:25:37.116Z,8.26
2023-05-08T02:26:37.124Z,8.25
2023-05-08T02:27:37.085Z,8.25
2023-05-08T02:28:37.124Z,8.22
2023-05-08T02:29:37.078Z,8.20
2023-05-08T02:30:37.063Z,8.19
2023-05-08T02:31:37.074Z,8.16
2023-05-08T02:32:37.119Z,8.12
2023-05-08T02:33:37.306Z,8.10
2023-05-08T02:34:38.069Z,8.10
2023-05-08T02:35:37.006Z,8.10
2023-05-08T02:36:37.121Z,8.07
2023-05-08T02:37:36.969Z,8.05
2023-05-08T02:38:36.978Z,8.04
2023-05-08T02:39:36.965Z,8.00
2023-05-08T02:40:36.956Z,7.98
2023-05-08T02:41:36.961Z,7.93
2023-05-08T02:42:36.934Z,7.93
2023-05-08T02:43:36.920Z,7.90
2023-05-08T02:44:36.911Z,7.86
2023-05-08T02:45:36.899Z,7.85
2023-05-08T02:46:36.982Z,7.85
2023-05-08T02:47:36.933Z,7.82
2023-05-08T02:48:36.892Z,7.79
2023-05-08T02:49:36.858Z,7.77
2023-05-08T02:50:36.854Z,7.77
2023-05-08T02:51:36.814Z,7.79
2023-05-08T02:52:36.841Z,7.77
2023-05-08T02:53:36.801Z,7.77
2023-05-08T02:54:36.831Z,7.75
2023-05-08T02:55:36.783Z,7.79
2023-05-08T02:56:36.811Z,7.75
2023-05-08T02:57:36.767Z,7.72
2023-05-08T02:58:36.777Z,7.69
2023-05-08T02:59:36.756Z,7.67
2023-05-08T03:00:36.745Z,7.64
2023-05-08T03:01:36.721Z,7.64
2023-05-08T03:02:36.802Z,7.64
2023-05-08T03:03:36.729Z,7.68
2023-05-08T03:04:36.709Z,7.64
2023-05-08T03:05:36.690Z,7.67
2023-05-08T03:06:36.665Z,7.67
2023-05-08T03:07:36.674Z,7.67
2023-05-08T03:08:36.650Z,7.64
2023-05-08T03:09:36.616Z,7.63
2023-05-08T03:10:36.655Z,7.63
2023-05-08T03:11:36.599Z,7.61
2023-05-08T03:12:36.697Z,7.63
2023-05-08T03:13:36.586Z,7.58
2023-05-08T03:14:36.588Z,7.60
2023-05-08T03:15:36.674Z,7.58
2023-05-08T03:16:36.632Z,7.55
2023-05-08T03:17:36.740Z,7.55
2023-05-08T03:18:36.844Z,7.50
2023-05-08T03:19:36.812Z,7.50
2023-05-08T03:20:36.734Z,7.52
2023-05-08T03:21:36.649Z,7.50
2023-05-08T03:22:36.605Z,7.49
2023-05-08T03:23:36.575Z,7.49
2023-05-08T03:24:36.482Z,7.49
2023-05-08T03:25:36.443Z,7.46
2023-05-08T03:26:36.450Z,7.48
2023-05-08T03:27:36.429Z,7.48
2023-05-08T03:28:36.465Z,7.49
2023-05-08T03:29:36.417Z,7.50
2023-05-08T03:30:36.403Z,7.52
2023-05-08T03:31:36.419Z,7.53
2023-05-08T03:32:36.403Z,7.53
2023-05-08T03:33:36.356Z,7.53
2023-05-08T03:34:36.370Z,7.53
2023-05-08T03:35:36.360Z,7.57
2023-05-08T03:36:36.334Z,7.55
2023-05-08T03:37:36.307Z,7.53
2023-05-08T03:38:36.391Z,7.52
2023-05-08T03:39:36.313Z,7.50
2023-05-08T03:40:36.315Z,7.50
2023-05-08T03:41:36.280Z,7.50
2023-05-08T03:42:36.279Z,7.52
2023-05-08T03:43:36.281Z,7.50
2023-05-08T03:44:36.260Z,7.50
2023-05-08T03:45:36.244Z,7.52
2023-05-08T03:46:36.263Z,7.50
2023-05-08T03:47:36.265Z,7.50
2023-05-08T03:48:36.211Z,7.50
2023-05-08T03:49:36.232Z,7.49
2023-05-08T03:50:36.240Z,7.49
2023-05-08T03:51:36.181Z,7.50
2023-05-08T03:52:36.179Z,7.49
2023-05-08T03:53:36.148Z,7.46
2023-05-08T03:54:36.145Z,7.48
2023-05-08T03:55:36.127Z,7.49
2023-05-08T03:56:36.146Z,7.49
2023-05-08T03:57:36.106Z,7.50
2023-05-08T03:58:36.100Z,7.52
2023-05-08T03:59:36.089Z,7.50
2023-05-08T04:00:36.087Z,7.50
2023-05-08T04:01:36.118Z,7.53
2023-05-08T04:02:36.165Z,7.57
2023-05-08T04:03:36.253Z,7.57
2023-05-08T04:04:36.294Z,7.60
2023-05-08T04:05:36.144Z,7.58
2023-05-08T04:06:49.389Z,7.63
2023-05-08T04:07:37.317Z,7.63
2023-05-08T04:08:36.479Z,7.63
2023-05-08T04:09:36.023Z,7.68
2023-05-08T04:10:35.963Z,7.71
2023-05-08T04:11:35.984Z,7.69
2023-05-08T04:12:35.963Z,7.69
2023-05-08T04:13:35.969Z,7.69
2023-05-08T04:14:35.951Z,7.68
2023-05-08T04:15:35.935Z,7.71
2023-05-08T04:16:35.995Z,7.71
2023-05-08T04:17:35.974Z,7.74
2023-05-08T04:18:35.875Z,7.74
2023-05-08T04:19:35.888Z,7.77
2023-05-08T04:20:35.876Z,7.79
2023-05-08T04:21:35.895Z,7.79
2023-05-08T04:22:35.845Z,7.77
2023-05-08T04:23:35.835Z,7.77
2023-05-08T04:24:35.821Z,7.77
2023-05-08T04:25:35.844Z,7.75
2023-05-08T04:26:35.816Z,7.79
2023-05-08T04:27:36.301Z,7.79
2023-05-08T04:28:35.779Z,7.82
2023-05-08T04:29:35.779Z,7.86
2023-05-08T04:30:35.766Z,7.85
2023-05-08T04:31:35.810Z,7.90
2023-05-08T04:32:36.780Z,7.90
2023-05-08T04:33:35.729Z,7.92
2023-05-08T04:34:35.728Z,7.92
2023-05-08T04:35:35.721Z,7.93
2023-05-08T04:36:35.719Z,7.93
2023-05-08T04:37:35.692Z,7.95
2023-05-08T04:38:35.675Z,7.97
2023-05-08T04:39:35.687Z,8.00
2023-05-08T04:40:35.818Z,7.98
2023-05-08T04:41:35.691Z,8.01
2023-05-08T04:42:35.649Z,8.01
2023-05-08T04:43:35.657Z,8.04
2023-05-08T04:44:35.598Z,8.08
2023-05-08T04:45:35.607Z,8.10
2023-05-08T04:46:35.680Z,8.12
2023-05-08T04:47:35.629Z,8.10
2023-05-08T04:48:35.599Z,8.15
2023-05-08T04:49:35.577Z,8.18
2023-05-08T04:50:35.534Z,8.23
2023-05-08T04:51:35.546Z,8.28
2023-05-08T04:52:35.541Z,8.34
2023-05-08T04:53:35.533Z,8.38
2023-05-08T04:54:35.485Z,8.40
2023-05-08T04:55:35.510Z,8.41
2023-05-08T04:56:35.471Z,8.45
2023-05-08T04:57:35.523Z,8.47
2023-05-08T04:58:35.468Z,8.48
2023-05-08T04:59:35.450Z,8.53
2023-05-08T05:00:35.456Z,8.56
2023-05-08T05:01:35.454Z,8.61
2023-05-08T05:02:35.465Z,8.63
2023-05-08T05:03:35.492Z,8.68
2023-05-08T05:04:35.382Z,8.70
2023-05-08T05:05:36.971Z,8.74
2023-05-08T05:06:35.442Z,8.77
2023-05-08T05:07:35.362Z,8.81
2023-05-08T05:08:35.345Z,8.84
2023-05-08T05:09:35.360Z,8.91
2023-05-08T05:10:35.327Z,8.94
2023-05-08T05:11:35.418Z,8.98
2023-05-08T05:12:35.335Z,8.98
2023-05-08T05:13:35.301Z,9.04
2023-05-08T05:14:35.281Z,9.08
2023-05-08T05:15:35.302Z,9.14
2023-05-08T05:16:35.392Z,9.18
2023-05-08T05:17:35.425Z,9.21
2023-05-08T05:18:35.234Z,9.24
2023-05-08T05:19:35.226Z,9.28
2023-05-08T05:20:35.241Z,9.33
2023-05-08T05:21:35.211Z,9.39
2023-05-08T05:22:35.191Z,9.42
2023-05-08T05:23:35.208Z,9.48
2023-05-08T05:24:35.372Z,9.53
2023-05-08T05:25:35.172Z,9.57
2023-05-08T05:26:36.776Z,9.64
2023-05-08T05:27:35.154Z,9.68
2023-05-08T05:28:35.112Z,9.72
2023-05-08T05:29:35.122Z,9.75
2023-05-08T05:30:35.103Z,9.79
2023-05-08T05:31:35.150Z,9.84
2023-05-08T05:32:35.678Z,9.86
2023-05-08T05:33:35.080Z,9.90
2023-05-08T05:34:35.076Z,9.93
2023-05-08T05:35:35.067Z,9.97
2023-05-08T05:36:35.032Z,10.05
2023-05-08T05:37:35.039Z,10.08
2023-05-08T05:38:35.002Z,10.12
2023-05-08T05:39:35.009Z,10.18
2023-05-08T05:40:38.887Z,10.23
2023-05-08T05:41:35.052Z,10.26
2023-05-08T05:42:35.083Z,10.30
2023-05-08T05:43:35.104Z,10.34
2023-05-08T05:44:34.937Z,10.40
2023-05-08T05:45:34.968Z,10.42
2023-05-08T05:46:34.954Z,10.45
2023-05-08T05:47:34.964Z,10.51
2023-05-08T05:48:34.898Z,10.53
2023-05-08T05:49:34.906Z,10.56
2023-05-08T05:50:34.902Z,10.60
2023-05-08T05:51:34.868Z,10.64
2023-05-08T05:52:34.852Z,10.67
2023-05-08T05:53:34.858Z,10.71
2023-05-08T05:54:34.826Z,10.76
2023-05-08T05:55:34.861Z,10.84
2023-05-08T05:56:34.810Z,10.85
2023-05-08T05:57:34.818Z,10.91
2023-05-08T05:58:34.800Z,10.94
2023-05-08T05:59:34.800Z,11.00
2023-05-08T06:00:34.772Z,11.04
2023-05-08T06:01:34.789Z,11.09
2023-05-08T06:02:34.803Z,11.14
2023-05-08T06:03:34.936Z,11.18
2023-05-08T06:04:34.769Z,11.18
2023-05-08T06:05:34.754Z,11.21
2023-05-08T06:06:34.694Z,11.24
2023-05-08T06:07:34.720Z,11.28
2023-05-08T06:08:34.701Z,11.33
2023-05-08T06:09:34.700Z,11.37
2023-05-08T06:10:34.662Z,11.39
2023-05-08T06:11:34.662Z,11.43
2023-05-08T06:12:34.679Z,11.46
2023-05-08T06:13:34.804Z,11.51
2023-05-08T06:14:34.632Z,11.55
2023-05-08T06:15:34.609Z,11.58
2023-05-08T06:16:34.630Z,11.61
2023-05-08T06:17:34.677Z,11.67
2023-05-08T06:18:34.579Z,11.72
2023-05-08T06:19:34.575Z,11.80
2023-05-08T06:20:34.561Z,11.86
2023-05-08T06:21:34.623Z,11.90
2023-05-08T06:22:34.526Z,11.91
2023-05-08T06:23:34.524Z,11.95
2023-05-08T06:24:34.498Z,11.98
2023-05-08T06:25:34.507Z,12.02
2023-05-08T06:26:34.503Z,12.04
2023-05-08T06:27:34.513Z,12.09
2023-05-08T06:28:34.471Z,12.07
2023-05-08T06:29:34.487Z,12.13
2023-05-08T06:30:34.492Z,12.20
2023-05-08T06:31:34.611Z,12.27
2023-05-08T06:32:34.438Z,12.32
2023-05-08T06:33:34.440Z,12.38
2023-05-08T06:34:34.397Z,12.47
2023-05-08T06:35:34.409Z,12.53
2023-05-08T06:36:34.385Z,12.57
2023-05-08T06:37:34.376Z,12.60
2023-05-08T06:38:34.355Z,12.70
2023-05-08T06:39:34.347Z,12.71
2023-05-08T06:40:34.333Z,12.77
2023-05-08T06:41:34.344Z,12.79
2023-05-08T06:42:34.297Z,12.82
2023-05-08T06:43:34.299Z,12.83
2023-05-08T06:44:34.515Z,12.85
2023-05-08T06:45:34.285Z,12.89
2023-05-08T06:46:34.305Z,12.96
2023-05-08T06:47:34.357Z,12.96
2023-05-08T06:48:34.267Z,13.01
2023-05-08T06:49:34.252Z,13.03
2023-05-08T06:50:34.242Z,13.01
2023-05-08T06:51:34.268Z,13.03
2023-05-08T06:52:34.196Z,13.10
2023-05-08T06:53:34.218Z,13.17
2023-05-08T06:54:34.224Z,13.26
2023-05-08T06:55:34.184Z,13.36
2023-05-08T06:56:34.152Z,13.42
2023-05-08T06:57:34.151Z,13.49
2023-05-08T06:58:34.128Z,13.57
2023-05-08T06:59:34.157Z,13.64
2023-05-08T07:00:34.125Z,13.75
2023-05-08T07:01:34.161Z,13.79
2023-05-08T07:02:34.109Z,13.82
2023-05-08T07:03:34.106Z,13.88
2023-05-08T07:04:34.071Z,13.95
2023-05-08T07:05:34.088Z,14.00
2023-05-08T07:06:34.076Z,14.06
2023-05-08T07:07:34.086Z,14.10
2023-05-08T07:08:34.015Z,14.20
2023-05-08T07:09:34.029Z,14.24
2023-05-08T07:10:34.022Z,14.29
2023-05-08T07:11:34.031Z,14.36
2023-05-08T07:12:33.977Z,14.37
2023-05-08T07:13:34.137Z,14.43
2023-05-08T07:14:33.960Z,14.52
2023-05-08T07:15:34.044Z,14.55
2023-05-08T07:16:34.175Z,14.61
2023-05-08T07:17:33.997Z,14.69
2023-05-08T07:18:33.936Z,14.81
2023-05-08T07:19:33.917Z,14.89
2023-05-08T07:20:33.892Z,15.02
2023-05-08T07:21:33.914Z,15.19
2023-05-08T07:22:33.890Z,15.36
2023-05-08T07:23:33.887Z,15.59
2023-05-08T07:24:33.864Z,15.86
2023-05-08T07:25:33.847Z,16.24
2023-05-08T07:26:33.830Z,16.71
2023-05-08T07:27:33.860Z,17.23
2023-05-08T07:28:33.811Z,17.81
2023-05-08T07:29:33.813Z,18.39
2023-05-08T07:30:33.793Z,18.81
2023-05-08T07:31:33.797Z,18.99
2023-05-08T07:32:33.856Z,19.11
2023-05-08T07:33:33.781Z,18.98
2023-05-08T07:34:33.747Z,18.81
2023-05-08T07:35:33.782Z,18.55
2023-05-08T07:36:33.750Z,18.12
2023-05-08T07:37:33.734Z,17.81
2023-05-08T07:38:33.730Z,17.51
2023-05-08T07:39:33.719Z,17.26
2023-05-08T07:40:33.688Z,17.23
2023-05-08T07:41:33.736Z,16.96
2023-05-08T07:42:33.679Z,16.78
2023-05-08T07:43:33.672Z,16.64
2023-05-08T07:44:40.654Z,16.49
2023-05-08T07:45:34.843Z,16.38
2023-05-08T07:46:33.689Z,16.25
2023-05-08T07:47:33.682Z,16.25
2023-05-08T07:48:33.579Z,16.30
2023-05-08T07:49:33.633Z,16.38
2023-05-08T07:50:33.609Z,16.45
2023-05-08T07:51:33.564Z,16.56
2023-05-08T07:52:33.546Z,16.63
2023-05-08T07:53:33.550Z,16.68
2023-05-08T07:54:33.567Z,16.70
2023-05-08T07:55:33.571Z,16.71
2023-05-08T07:56:33.509Z,16.75
2023-05-08T07:57:33.533Z,16.79
2023-05-08T07:58:33.505Z,16.78
2023-05-08T07:59:33.482Z,16.75
2023-05-08T08:00:33.445Z,16.78
2023-05-08T08:01:40.521Z,16.76
2023-05-08T08:02:35.277Z,16.78
2023-05-08T08:03:33.510Z,16.76
2023-05-08T08:04:33.480Z,16.78
2023-05-08T08:05:33.429Z,16.76
2023-05-08T08:06:33.386Z,16.76
2023-05-08T08:07:33.396Z,16.76
2023-05-08T08:08:33.363Z,16.78
2023-05-08T08:09:33.365Z,16.82
2023-05-08T08:10:33.360Z,16.89
2023-05-08T08:11:33.348Z,16.98
2023-05-08T08:12:33.327Z,17.04
2023-05-08T08:13:33.418Z,17.01
2023-05-08T08:14:33.310Z,16.88
2023-05-08T08:15:33.295Z,16.82
2023-05-08T08:16:33.312Z,16.81
2023-05-08T08:17:33.302Z,16.81
2023-05-08T08:18:33.244Z,16.82
2023-05-08T08:19:33.257Z,16.83
2023-05-08T08:20:33.230Z,16.91
2023-05-08T08:21:33.242Z,16.96
2023-05-08T08:22:33.205Z,16.98
2023-05-08T08:23:33.216Z,17.03
2023-05-08T08:24:33.196Z,17.11
2023-05-08T08:25:33.178Z,17.07
2023-05-08T08:26:33.198Z,17.15
2023-05-08T08:27:33.166Z,17.19
2023-05-08T08:28:33.165Z,17.25
2023-05-08T08:29:34.092Z,17.28
2023-05-08T08:30:33.142Z,17.25
2023-05-08T08:31:33.189Z,17.25
2023-05-08T08:32:33.137Z,17.30
2023-05-08T08:33:33.234Z,17.38
2023-05-08T08:34:33.088Z,17.49
2023-05-08T08:35:33.081Z,17.62
2023-05-08T08:36:33.075Z,17.74
2023-05-08T08:37:33.052Z,17.79
2023-05-08T08:38:33.308Z,17.78
2023-05-08T08:39:33.021Z,17.84
2023-05-08T08:40:33.018Z,17.92
2023-05-08T08:41:33.007Z,18.02
2023-05-08T08:42:33.035Z,18.02
2023-05-08T08:43:33.021Z,18.07
2023-05-08T08:44:32.982Z,18.10
2023-05-08T08:45:32.957Z,18.11
2023-05-08T08:46:32.994Z,18.12
2023-05-08T08:47:33.043Z,18.17
2023-05-08T08:48:32.947Z,18.17
2023-05-08T08:49:32.956Z,18.27
2023-05-08T08:50:32.940Z,18.35
2023-05-08T08:51:32.946Z,18.41
2023-05-08T08:52:32.917Z,18.45
2023-05-08T08:53:32.872Z,18.37
2023-05-08T08:54:32.905Z,18.41
2023-05-08T08:55:32.852Z,18.45
2023-05-08T08:56:32.875Z,18.52
2023-05-08T08:57:32.850Z,18.62
2023-05-08T08:58:32.837Z,18.75
2023-05-08T08:59:32.825Z,18.82
2023-05-08T09:00:32.786Z,18.88
2023-05-08T09:01:32.914Z,19.00
2023-05-08T09:02:32.892Z,19.06
2023-05-08T09:03:32.895Z,19.07
2023-05-08T09:04:32.750Z,19.11
2023-05-08T09:05:32.725Z,19.22
2023-05-08T09:06:32.728Z,19.29
2023-05-08T09:07:32.754Z,19.36
2023-05-08T09:08:32.714Z,19.40
2023-05-08T09:09:32.696Z,19.43
2023-05-08T09:10:32.768Z,19.46
2023-05-08T09:11:32.711Z,19.50
2023-05-08T09:12:32.675Z,19.51
2023-05-08T09:13:32.674Z,19.56
2023-05-08T09:14:32.641Z,19.61
2023-05-08T09:15:32.626Z,19.58
2023-05-08T09:16:32.641Z,19.58
2023-05-08T09:17:32.668Z,19.59
2023-05-08T09:18:32.680Z,19.69
2023-05-08T09:19:32.592Z,19.77
2023-05-08T09:20:32.592Z,19.78
2023-05-08T09:21:32.573Z,19.81
2023-05-08T09:22:32.566Z,19.86
2023-05-08T09:23:32.532Z,19.84
2023-05-08T09:24:32.543Z,19.80
2023-05-08T09:25:32.510Z,19.80
2023-05-08T09:26:32.597Z,19.68
2023-05-08T09:27:32.498Z,19.51
2023-05-08T09:28:32.495Z,19.28
2023-05-08T09:29:32.453Z,19.21
2023-05-08T09:30:32.485Z,19.25
2023-05-08T09:31:32.880Z,19.37
2023-05-08T09:32:32.466Z,19.47
2023-05-08T09:33:32.439Z,19.61
2023-05-08T09:34:32.429Z,19.71
2023-05-08T09:35:32.441Z,19.80
2023-05-08T09:36:32.445Z,19.86
2023-05-08T09:37:32.381Z,19.92
2023-05-08T09:38:32.541Z,20.02
2023-05-08T09:39:32.369Z,20.14
2023-05-08T09:40:32.358Z,20.16
2023-05-08T09:41:32.365Z,20.18
2023-05-08T09:42:32.372Z,20.16
2023-05-08T09:43:32.318Z,20.18
2023-05-08T09:44:32.592Z,20.21
2023-05-08T09:45:32.434Z,20.33
2023-05-08T09:46:32.311Z,20.39
2023-05-08T09:47:32.299Z,20.58
2023-05-08T09:48:32.277Z,20.74
2023-05-08T09:49:32.419Z,20.89
2023-05-08T09:50:32.254Z,21.04
2023-05-08T09:51:32.240Z,21.22
2023-05-08T09:52:32.233Z,21.42
2023-05-08T09:53:32.214Z,21.59
2023-05-08T09:54:32.205Z,21.79
2023-05-08T09:55:32.187Z,22.03
2023-05-08T09:56:32.185Z,22.36
2023-05-08T09:57:32.171Z,22.46
2023-05-08T09:58:32.176Z,22.76
2023-05-08T09:59:34.091Z,23.23
2023-05-08T10:00:32.163Z,23.66
2023-05-08T10:01:32.137Z,24.18
2023-05-08T10:02:32.151Z,24.57
2023-05-08T10:03:32.135Z,24.96
2023-05-08T10:04:32.096Z,24.78
2023-05-08T10:05:32.510Z,24.91
2023-05-08T10:06:32.084Z,24.69
2023-05-08T10:07:32.077Z,24.88
2023-05-08T10:08:32.075Z,25.03
2023-05-08T10:09:42.740Z,24.87
2023-05-08T10:10:33.105Z,24.81
2023-05-08T10:11:32.050Z,24.96
2023-05-08T10:12:32.021Z,25.10
2023-05-08T10:13:31.994Z,25.30
2023-05-08T10:14:32.114Z,25.39
2023-05-08T10:15:32.007Z,25.52
2023-05-08T10:16:32.018Z,25.91
2023-05-08T10:17:31.980Z,26.12
2023-05-08T10:18:31.955Z,26.26
2023-05-08T10:19:31.937Z,26.52
2023-05-08T10:20:31.957Z,26.55
2023-05-08T10:21:31.940Z,26.60
2023-05-08T10:22:32.028Z,26.43
2023-05-08T10:23:31.873Z,26.48
2023-05-08T10:24:31.886Z,26.57
2023-05-08T10:25:31.870Z,26.77
2023-05-08T10:26:31.884Z,26.92
2023-05-08T10:27:31.872Z,26.95
2023-05-08T10:28:31.839Z,27.13
2023-05-08T10:29:31.808Z,27.09
2023-05-08T10:30:31.905Z,26.95
2023-05-08T10:31:31.834Z,26.63
2023-05-08T10:32:31.845Z,26.32
2023-05-08T10:33:31.856Z,26.15
2023-05-08T10:34:31.876Z,25.65
2023-05-08T10:35:31.852Z,25.36
2023-05-08T10:36:31.752Z,25.23
2023-05-08T10:37:31.940Z,25.43
2023-05-08T10:38:31.752Z,25.36
2023-05-08T10:39:31.808Z,25.08
2023-05-08T10:40:31.735Z,25.03
2023-05-08T10:41:31.770Z,24.95
2023-05-08T10:42:31.690Z,24.93
2023-05-08T10:43:31.667Z,24.76
2023-05-08T10:44:31.749Z,24.69
2023-05-08T10:45:31.654Z,24.62
2023-05-08T10:46:31.711Z,24.61
2023-05-08T10:47:31.645Z,24.73
2023-05-08T10:48:31.646Z,24.83
2023-05-08T10:49:31.666Z,24.87
2023-05-08T10:50:31.717Z,24.99
2023-05-08T10:51:31.592Z,25.06
2023-05-08T10:52:31.596Z,25.17
2023-05-08T10:53:31.574Z,25.33
2023-05-08T10:54:31.603Z,25.45
2023-05-08T10:55:31.559Z,25.61
2023-05-08T10:56:31.589Z,25.60
2023-05-08T10:57:31.645Z,25.35
2023-05-08T10:58:31.566Z,25.08
2023-05-08T10:59:31.567Z,24.87
2023-05-08T11:00:31.461Z,24.81
2023-05-08T11:01:31.485Z,24.65
2023-05-08T11:02:31.587Z,24.71
2023-05-08T11:03:33.094Z,24.76
2023-05-08T11:04:31.636Z,24.76
2023-05-08T11:05:31.433Z,24.88
2023-05-08T11:06:31.441Z,24.85
2023-05-08T11:07:31.421Z,24.91
2023-05-08T11:08:31.483Z,25.00
2023-05-08T11:09:31.402Z,24.96
2023-05-08T11:10:31.456Z,25.08
2023-05-08T11:11:31.394Z,25.21
2023-05-08T11:12:31.373Z,25.32
2023-05-08T11:13:31.412Z,25.27
2023-05-08T11:14:31.356Z,25.33
2023-05-08T11:15:31.332Z,25.40
2023-05-08T11:16:31.362Z,25.35
2023-05-08T11:17:31.384Z,25.17
2023-05-08T11:18:42.258Z,24.95
2023-05-08T11:19:32.293Z,24.83
2023-05-08T11:20:32.301Z,24.99
2023-05-08T11:21:31.330Z,25.18
2023-05-08T11:22:31.270Z,25.39
2023-05-08T11:23:31.250Z,25.67
2023-05-08T11:24:31.248Z,25.95
2023-05-08T11:25:31.237Z,26.10
2023-05-08T11:26:31.226Z,26.12
2023-05-08T11:27:31.208Z,25.85
2023-05-08T11:28:32.632Z,25.69
2023-05-08T11:29:31.183Z,25.82
2023-05-08T11:30:31.190Z,25.97
2023-05-08T11:31:31.198Z,25.87
2023-05-08T11:32:31.218Z,25.64
2023-05-08T11:33:31.154Z,25.80
2023-05-08T11:34:31.160Z,25.95
2023-05-08T11:35:31.249Z,26.10
2023-05-08T11:36:31.136Z,26.36
2023-05-08T11:37:31.106Z,26.47
2023-05-08T11:38:31.097Z,26.57
2023-05-08T11:39:31.077Z,26.60
2023-05-08T11:40:31.188Z,26.57
2023-05-08T11:41:31.064Z,26.55
2023-05-08T11:42:31.063Z,26.44
2023-05-08T11:43:31.036Z,26.40
2023-05-08T11:44:31.033Z,26.36
2023-05-08T11:45:31.024Z,26.45
2023-05-08T11:46:31.075Z,26.58
2023-05-08T11:47:31.033Z,26.70
2023-05-08T11:48:31.016Z,26.82
2023-05-08T11:49:30.976Z,26.88
2023-05-08T11:50:30.979Z,26.99
2023-05-08T11:51:30.981Z,26.92
2023-05-08T11:52:31.036Z,27.02
2023-05-08T11:53:30.957Z,27.12
2023-05-08T11:54:30.947Z,27.29
2023-05-08T11:55:30.960Z,27.29
2023-05-08T11:56:30.941Z,27.21
2023-05-08T11:57:30.912Z,27.13
2023-05-08T11:58:30.897Z,27.21
2023-05-08T11:59:30.887Z,27.49
2023-05-08T12:00:30.883Z,27.62
2023-05-08T12:01:30.868Z,27.27
2023-05-08T12:02:33.870Z,26.58
2023-05-08T12:03:30.969Z,26.12
2023-05-08T12:04:30.909Z,26.09
2023-05-08T12:05:30.825Z,25.98
2023-05-08T12:06:30.841Z,25.94
2023-05-08T12:07:30.790Z,25.99
2023-05-08T12:08:30.814Z,25.99
2023-05-08T12:09:30.779Z,25.92
2023-05-08T12:10:30.774Z,25.76
2023-05-08T12:11:30.881Z,25.58
2023-05-08T12:12:30.767Z,25.14
2023-05-08T12:13:30.844Z,24.87
2023-05-08T12:14:30.746Z,24.77
2023-05-08T12:15:30.708Z,24.78
2023-05-08T12:16:30.834Z,24.95
2023-05-08T12:17:30.696Z,25.10
2023-05-08T12:18:30.732Z,25.15
2023-05-08T12:19:30.683Z,25.39
2023-05-08T12:20:32.031Z,25.45
2023-05-08T12:21:30.664Z,25.46
2023-05-08T12:22:30.645Z,25.38
2023-05-08T12:23:30.718Z,25.24
2023-05-08T12:24:30.649Z,25.33
2023-05-08T12:25:30.602Z,25.39
2023-05-08T12:26:30.626Z,25.43
2023-05-08T12:27:30.589Z,25.51
2023-05-08T12:28:30.590Z,25.14
2023-05-08T12:29:30.574Z,25.06
2023-05-08T12:30:30.580Z,25.08
2023-05-08T12:31:30.598Z,25.14
2023-05-08T12:32:30.606Z,25.40
2023-05-08T12:33:30.552Z,25.77
2023-05-08T12:34:30.523Z,26.10
2023-05-08T12:35:30.518Z,26.47
2023-05-08T12:36:30.499Z,26.58
2023-05-08T12:37:30.468Z,26.88
2023-05-08T12:38:30.481Z,27.25
2023-05-08T12:39:30.480Z,27.65
2023-05-08T12:40:30.456Z,28.04
2023-05-08T12:41:30.475Z,28.44
2023-05-08T12:42:30.445Z,28.64
2023-05-08T12:43:30.458Z,28.58
2023-05-08T12:44:30.407Z,28.56
2023-05-08T12:45:30.412Z,28.58
2023-05-08T12:46:30.423Z,28.48
2023-05-08T12:47:30.438Z,28.48
2023-05-08T12:48:30.370Z,28.29
2023-05-08T12:49:30.716Z,28.52
2023-05-08T12:50:30.426Z,28.66
2023-05-08T12:51:30.380Z,28.52
2023-05-08T12:52:30.330Z,28.43
2023-05-08T12:53:30.334Z,28.41
2023-05-08T12:54:30.412Z,28.54
2023-05-08T12:55:30.315Z,28.78
2023-05-08T12:56:30.299Z,29.02
2023-05-08T12:57:30.289Z,29.24
2023-05-08T12:58:30.272Z,29.33
2023-05-08T12:59:30.271Z,29.30
2023-05-08T13:00:30.225Z,29.23
2023-05-08T13:01:30.365Z,29.04
2023-05-08T13:02:30.347Z,28.98
2023-05-08T13:03:30.364Z,28.86